• Join FlightAware (Why Join?)
  • Login
  • US Flag 
11:08AM EST


 

Airport Tracker/Info


-or-


 

Live Flight TrackerFlight Track Log ✈ EZY2285 ✈ 21-Apr-2013 ✈ EGGW / LTN - LIMC / MXP

Flight Track Log - Related Links

Times and Time Zones

All times are in EDT time to prevent confusion due to time zone crossing. See the EZY2285 flight status page for this flight to view local times or setup timezone preferences in your user account.

Time Position Orientation Groundspeed Altitude Reporting Facility
EDT Latitude Longitude Course Direction KTS MPH feet Rate Location/Type
01:45PM 51.2845 0.6483 133° Southeast  Level Estimated
01:46PM 51.2304 0.7395 133° Southeast  Level Estimated
01:47PM 51.1763 0.8304 134° Southeast  Level Estimated
01:48PM 51.1220 0.9211 134° Southeast  Level Estimated
01:49PM 51.0677 1.0115 134° Southeast  Level Estimated
01:50PM 51.0134 1.1018 134° Southeast  Level Estimated
01:51PM 50.9589 1.1919 134° Southeast  Level Estimated
01:52PM 50.9044 1.2817 134° Southeast  Level Estimated
01:53PM 50.8498 1.3714 134° Southeast  Level Estimated
01:54PM 50.7952 1.4608 134° Southeast  Level Estimated
01:55PM 50.7384 1.5534 134° Southeast  Level Estimated
01:56PM 50.6816 1.6457 134° Southeast  Level Estimated
01:57PM 50.6246 1.7379 134° Southeast  Level Estimated
01:58PM 50.5676 1.8298 134° Southeast  Level Estimated
01:59PM 50.5106 1.9215 134° Southeast  Level Estimated
02:00PM 50.4500 2.0184 134° Southeast  Level Estimated
02:01PM 50.3894 2.1151 135° Southeast  Level Estimated
02:02PM 50.3286 2.2116 135° Southeast  Level Estimated
02:03PM 50.2678 2.3078 135° Southeast  Level Estimated
02:04PM 50.2069 2.4037 135° Southeast  Level Estimated
02:05PM 50.1460 2.4995 135° Southeast  Level Estimated
02:06PM 50.0849 2.5949 135° Southeast  Level Estimated
02:07PM 50.0238 2.6902 135° Southeast  Level Estimated
02:08PM 49.9626 2.7852 135° Southeast  Level Estimated
02:09PM 49.9013 2.8799 135° Southeast  Level Estimated
02:10PM 49.8399 2.9744 135° Southeast  Level Estimated
02:11PM 49.7785 3.0687 135° Southeast  Level Estimated
02:12PM 49.7170 3.1627 135° Southeast  Level Estimated
02:13PM 49.6554 3.2565 135° Southeast  Level Estimated
02:14PM 49.5937 3.3500 135° Southeast  Level Estimated
02:15PM 49.5320 3.4434 136° Southeast  Level Estimated
02:16PM 49.4702 3.5364 136° Southeast  Level Estimated
02:17PM 49.4083 3.6293 136° Southeast  Level Estimated
02:18PM 49.3463 3.7219 136° Southeast  Level Estimated
02:19PM 49.2843 3.8143 136° Southeast  Level Estimated
02:20PM 49.2222 3.9064 136° Southeast  Level Estimated
02:21PM 49.1600 3.9983 136° Southeast  Level Estimated
02:22PM 49.0978 4.0900 136° Southeast  Level Estimated
02:23PM 49.0354 4.1815 136° Southeast  Level Estimated
02:24PM 48.9730 4.2727 136° Southeast  Level Estimated
02:25PM 48.9106 4.3637 136° Southeast  Level Estimated
02:26PM 48.8480 4.4545 136° Southeast  Level Estimated
02:27PM 48.7854 4.5450 136° Southeast  Level Estimated
02:28PM 48.7227 4.6353 136° Southeast  Level Estimated
02:29PM 48.6600 4.7254 137° Southeast  Level Estimated
02:30PM 48.5972 4.8153 137° Southeast  Level Estimated
02:31PM 48.5343 4.9049 137° Southeast  Level Estimated
02:32PM 48.4713 4.9943 137° Southeast  Level Estimated
02:33PM 48.4083 5.0835 137° Southeast  Level Estimated
02:34PM 48.3452 5.1725 137° Southeast  Level Estimated
02:35PM 48.2820 5.2613 137° Southeast  Level Estimated
02:36PM 48.2188 5.3498 137° Southeast  Level Estimated
02:37PM 48.1555 5.4381 137° Southeast  Level Estimated
02:38PM 48.0921 5.5262 137° Southeast  Level Estimated
02:39PM 48.0287 5.6141 137° Southeast  Level Estimated
02:40PM 47.9651 5.7018 137° Southeast  Level Estimated
02:41PM 47.9016 5.7893 137° Southeast  Level Estimated
02:42PM 47.8379 5.8765 137° Southeast  Level Estimated
02:43PM 47.7742 5.9635 137° Southeast  Level Estimated
02:44PM 47.7105 6.0503 137° Southeast  Level Estimated
02:45PM 47.6466 6.1369 138° Southeast  Level Estimated
02:46PM 47.5827 6.2233 138° Southeast  Level Estimated
02:47PM 47.5187 6.3095 138° Southeast  Level Estimated
02:48PM 47.4547 6.3955 138° Southeast  Level Estimated
02:49PM 47.3906 6.4812 138° Southeast  Level Estimated
02:50PM 47.3265 6.5668 138° Southeast  Level Estimated
02:51PM 47.2622 6.6521 138° Southeast  Level Estimated
02:52PM 47.1980 6.7373 138° Southeast  Level Estimated
02:53PM 47.1336 6.8222 138° Southeast  Level Estimated
02:54PM 47.0692 6.9069 138° Southeast  Level Estimated
02:55PM 47.0047 6.9914 138° Southeast  Level Estimated
02:56PM 46.9402 7.0758 138° Southeast  Level Estimated
02:57PM 46.8756 7.1599 138° Southeast  Level Estimated
02:58PM 46.8109 7.2438 138° Southeast  Level Estimated
02:59PM 46.7462 7.3275 138° Southeast  Level Estimated
03:00PM 46.6827 7.4094 138° Southeast  Level Estimated
03:01PM 46.6191 7.4910 139° Southeast  Level Estimated
03:02PM 46.5555 7.5725 139° Southeast  Level Estimated
03:03PM 46.4918 7.6538 139° Southeast  Level Estimated
03:04PM 46.4281 7.7349 139° Southeast  Level Estimated
03:05PM 46.3643 7.8159 139° Southeast  Level Estimated
03:06PM 46.3004 7.8966 139° Southeast  Level Estimated
03:07PM 46.2365 7.9771 139° Southeast  Level Estimated
03:08PM 46.1726 8.0575 139° Southeast  Level Estimated
03:09PM 46.1085 8.1376 139° Southeast  Level Estimated
03:10PM 46.0445 8.2176 139° Southeast  Level Estimated
03:11PM 45.9803 8.2974 139° Southeast  Level Estimated
03:12PM 45.9161 8.3770 139° Southeast  Level Estimated
03:13PM 45.8519 8.4565 139° Southeast  Level Estimated
03:14PM 45.7876 8.5357 139° Southeast  Level Estimated
03:15PM 45.7232 8.6148 139° Southeast  Level Estimated
03:16PM 45.6588 8.6936 139° Southeast  Level Estimated
03:17PM 45.6306 8.7281 139° Southeast  Level Estimated
03:18PM 45.6306 8.7281 170° South  Level Estimated
03:19PM 45.6306 8.7281 170° South  Level Estimated
03:20PM 45.6306 8.7281 170° South  Level Estimated
03:21PM 45.6306 8.7281 170° South  Level Estimated
03:22PM 45.6306 8.7281 170° South  Level Estimated
03:23PM 45.6306 8.7281 170° South  Level Estimated
03:24PM 45.6306 8.7281 170° South  Level Estimated